createdAt,value
2019-05-13T00:00:20.255Z,0.00
2019-05-13T00:01:20.170Z,0.00
2019-05-13T00:02:20.259Z,0.00
2019-05-13T00:03:20.148Z,0.00
2019-05-13T00:04:20.148Z,0.00
2019-05-13T00:05:20.129Z,0.00
2019-05-13T00:06:20.139Z,0.00
2019-05-13T00:07:20.154Z,0.00
2019-05-13T00:08:21.839Z,0.00
2019-05-13T00:09:20.088Z,0.00
2019-05-13T00:10:20.100Z,0.00
2019-05-13T00:11:20.096Z,0.00
2019-05-13T00:12:20.058Z,0.00
2019-05-13T00:13:20.040Z,0.00
2019-05-13T00:14:20.047Z,0.00
2019-05-13T00:15:20.017Z,0.00
2019-05-13T00:16:20.051Z,0.00
2019-05-13T00:17:20.031Z,0.00
2019-05-13T00:18:19.985Z,0.00
2019-05-13T00:19:19.977Z,0.00
2019-05-13T00:20:19.969Z,0.00
2019-05-13T00:21:19.957Z,0.00
2019-05-13T00:22:19.965Z,0.00
2019-05-13T00:23:19.934Z,0.00
2019-05-13T00:24:19.926Z,0.00
2019-05-13T00:25:19.916Z,0.00
2019-05-13T00:26:19.907Z,0.00
2019-05-13T00:27:19.918Z,0.00
2019-05-13T00:28:19.883Z,0.00
2019-05-13T00:29:19.882Z,0.00
2019-05-13T00:30:19.856Z,0.00
2019-05-13T00:31:19.877Z,0.00
2019-05-13T00:32:19.848Z,0.00
2019-05-13T00:33:19.835Z,0.00
2019-05-13T00:34:19.844Z,0.00
2019-05-13T00:35:19.807Z,0.00
2019-05-13T00:36:20.636Z,0.00
2019-05-13T00:37:20.091Z,0.00
2019-05-13T00:38:19.796Z,0.00
2019-05-13T00:39:19.779Z,0.00
2019-05-13T00:40:19.766Z,0.00
2019-05-13T00:41:19.752Z,0.00
2019-05-13T00:42:19.732Z,0.00
2019-05-13T00:43:19.735Z,0.00
2019-05-13T00:44:19.715Z,0.00
2019-05-13T00:45:19.709Z,0.00
2019-05-13T00:46:19.703Z,0.00
2019-05-13T00:47:19.672Z,0.00
2019-05-13T00:48:19.685Z,0.00
2019-05-13T00:49:19.655Z,0.00
2019-05-13T00:50:19.647Z,0.00
2019-05-13T00:51:19.625Z,0.00
2019-05-13T00:52:19.616Z,0.00
2019-05-13T00:53:19.634Z,0.00
2019-05-13T00:54:19.616Z,0.00
2019-05-13T00:55:19.603Z,0.00
2019-05-13T00:56:19.584Z,0.00
2019-05-13T00:57:19.565Z,0.00
2019-05-13T00:58:19.558Z,0.00
2019-05-13T00:59:19.566Z,0.00
2019-05-13T01:00:19.550Z,0.00
2019-05-13T01:01:19.535Z,0.00
2019-05-13T01:02:19.515Z,0.00
2019-05-13T01:03:19.512Z,0.00
2019-05-13T01:04:19.527Z,0.00
2019-05-13T01:05:19.488Z,0.00
2019-05-13T01:06:19.490Z,0.00
2019-05-13T01:07:25.958Z,0.00
2019-05-13T01:08:20.455Z,0.00
2019-05-13T01:09:19.454Z,0.00
2019-05-13T01:10:19.444Z,0.00
2019-05-13T01:11:19.437Z,0.00
2019-05-13T01:12:19.444Z,0.00
2019-05-13T01:13:19.399Z,0.00
2019-05-13T01:14:19.387Z,0.00
2019-05-13T01:15:19.394Z,0.00
2019-05-13T01:16:19.364Z,0.00
2019-05-13T01:17:19.347Z,0.00
2019-05-13T01:18:19.353Z,0.00
2019-05-13T01:19:19.328Z,0.00
2019-05-13T01:20:19.346Z,0.00
2019-05-13T01:21:19.299Z,0.00
2019-05-13T01:22:19.307Z,0.00
2019-05-13T01:23:19.286Z,0.00
2019-05-13T01:24:19.268Z,0.00
2019-05-13T01:25:19.302Z,0.00
2019-05-13T01:26:19.261Z,0.00
2019-05-13T01:27:19.245Z,0.00
2019-05-13T01:28:19.245Z,0.00
2019-05-13T01:29:19.214Z,0.00
2019-05-13T01:30:19.224Z,0.00
2019-05-13T01:31:19.216Z,0.00
2019-05-13T01:32:19.190Z,0.00
2019-05-13T01:33:19.164Z,0.00
2019-05-13T01:34:19.175Z,0.00
2019-05-13T01:35:19.153Z,0.00
2019-05-13T01:36:19.465Z,0.00
2019-05-13T01:37:19.125Z,0.00
2019-05-13T01:38:19.128Z,0.00
2019-05-13T01:39:19.104Z,0.00
2019-05-13T01:40:19.101Z,0.00
2019-05-13T01:41:19.104Z,0.00
2019-05-13T01:42:19.103Z,0.00
2019-05-13T01:43:19.068Z,0.00
2019-05-13T01:44:19.079Z,0.00
2019-05-13T01:45:19.042Z,0.00
2019-05-13T01:46:19.043Z,0.00
2019-05-13T01:47:19.033Z,0.00
2019-05-13T01:48:19.011Z,0.00
2019-05-13T01:49:19.014Z,0.00
2019-05-13T01:50:18.992Z,0.00
2019-05-13T01:51:18.982Z,0.00
2019-05-13T01:52:18.995Z,0.00
2019-05-13T01:53:18.962Z,0.00
2019-05-13T01:54:19.002Z,0.00
2019-05-13T01:55:18.935Z,0.00
2019-05-13T01:56:18.927Z,0.00
2019-05-13T01:57:18.931Z,0.00
2019-05-13T01:58:18.912Z,0.00
2019-05-13T01:59:18.890Z,0.00
2019-05-13T02:00:18.907Z,0.00
2019-05-13T02:01:18.871Z,0.00
2019-05-13T02:02:18.889Z,0.00
2019-05-13T02:03:18.849Z,0.00
2019-05-13T02:04:18.850Z,0.00
2019-05-13T02:05:18.841Z,0.00
2019-05-13T02:06:18.811Z,0.00
2019-05-13T02:07:19.510Z,0.00
2019-05-13T02:08:18.813Z,0.00
2019-05-13T02:09:18.779Z,0.00
2019-05-13T02:10:18.771Z,0.00
2019-05-13T02:11:18.760Z,0.00
2019-05-13T02:12:18.750Z,0.00
2019-05-13T02:13:18.761Z,0.00
2019-05-13T02:14:18.728Z,0.00
2019-05-13T02:15:18.730Z,0.00
2019-05-13T02:16:18.713Z,0.00
2019-05-13T02:17:18.698Z,0.00
2019-05-13T02:18:18.710Z,0.00
2019-05-13T02:19:18.669Z,0.00
2019-05-13T02:20:18.659Z,0.00
2019-05-13T02:21:18.652Z,0.00
2019-05-13T02:22:18.636Z,0.00
2019-05-13T02:23:18.650Z,0.00
2019-05-13T02:24:18.617Z,0.00
2019-05-13T02:25:18.606Z,0.00
2019-05-13T02:26:18.593Z,0.00
2019-05-13T02:27:18.606Z,0.00
2019-05-13T02:28:18.604Z,0.00
2019-05-13T02:29:18.569Z,0.00
2019-05-13T02:30:18.549Z,0.00
2019-05-13T02:31:26.784Z,0.00
2019-05-13T02:32:19.530Z,0.00
2019-05-13T02:33:18.553Z,0.00
2019-05-13T02:34:18.515Z,0.00
2019-05-13T02:35:18.515Z,0.00
2019-05-13T02:36:18.492Z,0.00
2019-05-13T02:37:18.473Z,0.00
2019-05-13T02:38:28.330Z,0.00
2019-05-13T02:39:22.189Z,0.00
2019-05-13T02:40:18.450Z,0.00
2019-05-13T02:41:18.430Z,0.00
2019-05-13T02:42:18.430Z,0.00
2019-05-13T02:43:18.428Z,0.00
2019-05-13T02:44:18.397Z,0.00
2019-05-13T02:45:18.378Z,0.00
2019-05-13T02:46:18.385Z,0.00
2019-05-13T02:47:18.447Z,0.00
2019-05-13T02:48:18.368Z,0.00
2019-05-13T02:49:18.358Z,0.00
2019-05-13T02:50:18.370Z,0.00
2019-05-13T02:51:18.317Z,0.00
2019-05-13T02:52:26.072Z,0.00
2019-05-13T02:53:28.186Z,0.00
2019-05-13T02:54:26.058Z,0.00
2019-05-13T02:55:27.733Z,0.00
2019-05-13T02:56:26.031Z,0.00
2019-05-13T02:57:18.254Z,0.00
2019-05-13T02:58:18.245Z,0.00
2019-05-13T02:59:18.254Z,0.00
2019-05-13T03:00:18.250Z,0.00
2019-05-13T03:01:18.233Z,0.00
2019-05-13T03:02:18.204Z,0.00
2019-05-13T03:03:18.201Z,0.00
2019-05-13T03:04:18.176Z,0.00
2019-05-13T03:05:18.352Z,0.00
2019-05-13T03:06:18.164Z,0.00
2019-05-13T03:07:18.154Z,0.00
2019-05-13T03:08:33.957Z,0.00
2019-05-13T03:09:19.137Z,0.00
2019-05-13T03:10:18.122Z,0.00
2019-05-13T03:11:18.135Z,0.00
2019-05-13T03:12:18.109Z,4.00
2019-05-13T03:13:18.149Z,4.00
2019-05-13T03:14:18.072Z,0.00
2019-05-13T03:15:18.064Z,4.00
2019-05-13T03:16:18.375Z,4.00
2019-05-13T03:17:18.031Z,8.00
2019-05-13T03:18:18.031Z,4.00
2019-05-13T03:19:18.049Z,8.00
2019-05-13T03:20:18.012Z,8.00
2019-05-13T03:21:18.044Z,8.00
2019-05-13T03:22:17.992Z,8.00
2019-05-13T03:23:17.973Z,16.00
2019-05-13T03:24:17.969Z,16.00
2019-05-13T03:25:17.951Z,20.00
2019-05-13T03:26:18.001Z,24.00
2019-05-13T03:27:20.681Z,20.00
2019-05-13T03:28:22.050Z,28.00
2019-05-13T03:29:17.910Z,32.00
2019-05-13T03:30:17.898Z,36.00
2019-05-13T03:31:18.118Z,36.00
2019-05-13T03:32:17.871Z,48.00
2019-05-13T03:33:19.855Z,52.00
2019-05-13T03:34:18.860Z,56.00
2019-05-13T03:35:17.843Z,64.00
2019-05-13T03:36:18.486Z,68.00
2019-05-13T03:37:17.835Z,76.00
2019-05-13T03:38:17.809Z,84.00
2019-05-13T03:39:17.791Z,88.00
2019-05-13T03:40:17.794Z,96.00
2019-05-13T03:41:17.800Z,104.00
2019-05-13T03:42:17.760Z,108.00
2019-05-13T03:43:18.433Z,120.00
2019-05-13T03:44:23.225Z,128.00
2019-05-13T03:45:17.738Z,140.00
2019-05-13T03:46:17.749Z,148.00
2019-05-13T03:47:17.719Z,156.00
2019-05-13T03:48:17.719Z,168.00
2019-05-13T03:49:17.700Z,184.00
2019-05-13T03:50:17.686Z,196.00
2019-05-13T03:51:17.692Z,216.00
2019-05-13T03:52:17.677Z,244.00
2019-05-13T03:53:17.654Z,276.00
2019-05-13T03:54:17.637Z,304.00
2019-05-13T03:55:17.639Z,340.00
2019-05-13T03:56:17.617Z,376.00
2019-05-13T03:57:17.630Z,412.00
2019-05-13T03:58:17.596Z,448.00
2019-05-13T03:59:17.632Z,484.00
2019-05-13T04:00:17.585Z,516.00
2019-05-13T04:01:17.571Z,556.00
2019-05-13T04:02:17.600Z,588.00
2019-05-13T04:03:17.538Z,628.00
2019-05-13T04:04:17.531Z,668.00
2019-05-13T04:05:17.538Z,708.00
2019-05-13T04:06:17.542Z,752.00
2019-05-13T04:07:17.528Z,792.00
2019-05-13T04:08:17.477Z,832.00
2019-05-13T04:09:27.586Z,868.00
2019-05-13T04:10:18.497Z,900.00
2019-05-13T04:11:17.483Z,936.00
2019-05-13T04:12:17.506Z,976.00
2019-05-13T04:13:17.426Z,1016.00
2019-05-13T04:14:17.435Z,1060.00
2019-05-13T04:15:17.415Z,1096.00
2019-05-13T04:16:17.405Z,1140.00
2019-05-13T04:17:17.411Z,1184.00
2019-05-13T04:18:17.395Z,1232.00
2019-05-13T04:19:17.367Z,1280.00
2019-05-13T04:20:17.412Z,1324.00
2019-05-13T04:21:17.357Z,1360.00
2019-05-13T04:22:17.336Z,1396.00
2019-05-13T04:23:17.392Z,1436.00
2019-05-13T04:24:17.312Z,1480.00
2019-05-13T04:25:17.304Z,1524.00
2019-05-13T04:26:17.302Z,1572.00
2019-05-13T04:27:17.365Z,1620.00
2019-05-13T04:28:17.314Z,1668.00
2019-05-13T04:29:17.256Z,1712.00
2019-05-13T04:30:17.253Z,1760.00
2019-05-13T04:31:17.259Z,1800.00
2019-05-13T04:32:17.225Z,1840.00
2019-05-13T04:33:17.235Z,1884.00
2019-05-13T04:34:17.233Z,1936.00
2019-05-13T04:35:17.243Z,1984.00
2019-05-13T04:36:17.186Z,2036.00
2019-05-13T04:37:17.162Z,2088.00
2019-05-13T04:38:17.165Z,2148.00
2019-05-13T04:39:35.191Z,2220.00
2019-05-13T04:40:18.140Z,2296.00
2019-05-13T04:41:17.143Z,2380.00
2019-05-13T04:42:17.123Z,2464.00
2019-05-13T04:43:17.120Z,2548.00
2019-05-13T04:44:17.109Z,2632.00
2019-05-13T04:45:17.082Z,2716.00
2019-05-13T04:46:17.080Z,2796.00
2019-05-13T04:47:17.058Z,2880.00
2019-05-13T04:48:17.041Z,2960.00
2019-05-13T04:49:18.054Z,3032.00
2019-05-13T04:50:17.051Z,3108.00
2019-05-13T04:51:17.021Z,3196.00
2019-05-13T04:52:17.002Z,3276.00
2019-05-13T04:53:17.010Z,3340.00
2019-05-13T04:54:17.009Z,3396.00
2019-05-13T04:55:16.964Z,3448.00
2019-05-13T04:56:16.961Z,3504.00
2019-05-13T04:57:16.951Z,3560.00
2019-05-13T04:58:16.941Z,3596.00
2019-05-13T04:59:16.944Z,3636.00
2019-05-13T05:00:16.973Z,3680.00
2019-05-13T05:01:16.906Z,3716.00
2019-05-13T05:02:16.894Z,3780.00
2019-05-13T05:03:22.369Z,3868.00
2019-05-13T05:04:24.462Z,3948.00
2019-05-13T05:05:18.652Z,4040.00
2019-05-13T05:06:16.851Z,4136.00
2019-05-13T05:07:16.849Z,4224.00
2019-05-13T05:08:16.830Z,4312.00
2019-05-13T05:09:16.823Z,4392.00
2019-05-13T05:10:29.098Z,4448.00
2019-05-13T05:11:17.810Z,4488.00
2019-05-13T05:12:16.782Z,4536.00
2019-05-13T05:13:16.769Z,4556.00
2019-05-13T05:14:16.761Z,4600.00
2019-05-13T05:15:16.769Z,4648.00
2019-05-13T05:16:16.760Z,4712.00
2019-05-13T05:17:16.727Z,4808.00
2019-05-13T05:18:16.731Z,4948.00
2019-05-13T05:19:16.704Z,5064.00
2019-05-13T05:20:16.848Z,5172.00
2019-05-13T05:21:16.727Z,5280.00
2019-05-13T05:22:16.689Z,5396.00
2019-05-13T05:23:16.666Z,5496.00
2019-05-13T05:24:16.658Z,5536.00
2019-05-13T05:25:16.639Z,5552.00
2019-05-13T05:26:16.699Z,5576.00
2019-05-13T05:27:16.635Z,5584.00
2019-05-13T05:28:16.611Z,5596.00
2019-05-13T05:29:16.602Z,5616.00
2019-05-13T05:30:16.587Z,5652.00
2019-05-13T05:31:16.587Z,5712.00
2019-05-13T05:32:16.613Z,5760.00
2019-05-13T05:33:16.582Z,5796.00
2019-05-13T05:34:16.550Z,5832.00
2019-05-13T05:35:16.547Z,5860.00
2019-05-13T05:36:16.525Z,5888.00
2019-05-13T05:37:16.528Z,5952.00
2019-05-13T05:38:16.517Z,6036.00
2019-05-13T05:39:16.477Z,6148.00
2019-05-13T05:40:28.043Z,6280.00
2019-05-13T05:41:17.468Z,6444.00
2019-05-13T05:42:16.476Z,6600.00
2019-05-13T05:43:16.440Z,6736.00
2019-05-13T05:44:16.428Z,6880.00
2019-05-13T05:45:16.436Z,7000.00
2019-05-13T05:46:16.445Z,7092.00
2019-05-13T05:47:16.424Z,7192.00
2019-05-13T05:48:16.391Z,7300.00
2019-05-13T05:49:16.388Z,7376.00
2019-05-13T05:50:16.360Z,7448.00
2019-05-13T05:51:16.363Z,7592.00
2019-05-13T05:52:26.233Z,7752.00
2019-05-13T05:53:16.336Z,7876.00
2019-05-13T05:54:16.316Z,7924.00
2019-05-13T05:55:16.317Z,7988.00
2019-05-13T05:56:16.298Z,8028.00
2019-05-13T05:57:16.339Z,8116.00
2019-05-13T05:58:16.303Z,8224.00
2019-05-13T05:59:16.273Z,8304.00
2019-05-13T06:00:16.246Z,8392.00
2019-05-13T06:01:16.241Z,8484.00
2019-05-13T06:02:16.272Z,8536.00
2019-05-13T06:03:16.251Z,8572.00
2019-05-13T06:04:16.204Z,8548.00
2019-05-13T06:05:16.287Z,8500.00
2019-05-13T06:06:16.188Z,8396.00
2019-05-13T06:07:16.197Z,8328.00
2019-05-13T06:08:17.886Z,8212.00
2019-05-13T06:09:16.155Z,8060.00
2019-05-13T06:10:16.172Z,7872.00
2019-05-13T06:11:16.203Z,7776.00
2019-05-13T06:12:16.131Z,7700.00
2019-05-13T06:13:16.134Z,7656.00
2019-05-13T06:14:16.125Z,7632.00
2019-05-13T06:15:16.103Z,7600.00
2019-05-13T06:16:16.088Z,7556.00
2019-05-13T06:17:16.074Z,7508.00
2019-05-13T06:18:16.085Z,7452.00
2019-05-13T06:19:17.868Z,7484.00
2019-05-13T06:20:16.034Z,7396.00
2019-05-13T06:21:16.025Z,7312.00
2019-05-13T06:22:16.013Z,7316.00
2019-05-13T06:23:16.024Z,7240.00
2019-05-13T06:24:16.032Z,7156.00
2019-05-13T06:25:15.995Z,7060.00
2019-05-13T06:26:15.968Z,6996.00
2019-05-13T06:27:16.042Z,6936.00
2019-05-13T06:28:15.949Z,6888.00
2019-05-13T06:29:15.954Z,6680.00
2019-05-13T06:30:15.946Z,6760.00
2019-05-13T06:31:15.917Z,6824.00
2019-05-13T06:32:22.454Z,6848.00
2019-05-13T06:33:16.884Z,7000.00
2019-05-13T06:34:15.924Z,7132.00
2019-05-13T06:35:15.871Z,7292.00
2019-05-13T06:36:15.884Z,7596.00
2019-05-13T06:37:15.869Z,7848.00
2019-05-13T06:38:15.844Z,8088.00
2019-05-13T06:39:16.147Z,8380.00
2019-05-13T06:40:15.812Z,8520.00
2019-05-13T06:41:15.802Z,8472.00
2019-05-13T06:42:15.792Z,8592.00
2019-05-13T06:43:15.775Z,8636.00
2019-05-13T06:44:15.802Z,8848.00
2019-05-13T06:45:15.782Z,9024.00
2019-05-13T06:46:15.759Z,9244.00
2019-05-13T06:47:15.744Z,9276.00
2019-05-13T06:48:15.746Z,9284.00
2019-05-13T06:49:15.749Z,9016.00
2019-05-13T06:50:15.711Z,8624.00
2019-05-13T06:51:15.693Z,8568.00
2019-05-13T06:52:15.711Z,8436.00
2019-05-13T06:53:15.662Z,8200.00
2019-05-13T06:54:15.713Z,7816.00
2019-05-13T06:55:15.694Z,7540.00
2019-05-13T06:56:15.631Z,6968.00
2019-05-13T06:57:15.620Z,6664.00
2019-05-13T06:58:15.613Z,6400.00
2019-05-13T06:59:15.639Z,6148.00
2019-05-13T07:00:15.601Z,6152.00
2019-05-13T07:01:15.594Z,6280.00
2019-05-13T07:02:15.584Z,6668.00
2019-05-13T07:03:15.558Z,6876.00
2019-05-13T07:04:15.549Z,6500.00
2019-05-13T07:05:16.461Z,6652.00
2019-05-13T07:06:15.531Z,6484.00
2019-05-13T07:07:17.359Z,6444.00
2019-05-13T07:08:15.506Z,6344.00
2019-05-13T07:09:15.490Z,6532.00
2019-05-13T07:10:15.471Z,6648.00
2019-05-13T07:11:21.120Z,6384.00
2019-05-13T07:12:16.511Z,6412.00
2019-05-13T07:13:15.440Z,6880.00
2019-05-13T07:14:15.430Z,6792.00
2019-05-13T07:15:15.444Z,6784.00
2019-05-13T07:16:15.487Z,7240.00
2019-05-13T07:17:15.422Z,7640.00
2019-05-13T07:18:16.385Z,7524.00
2019-05-13T07:19:15.397Z,7408.00
2019-05-13T07:20:15.394Z,7340.00
2019-05-13T07:21:15.380Z,7888.00
2019-05-13T07:22:15.349Z,7544.00
2019-05-13T07:23:15.347Z,7440.00
2019-05-13T07:24:15.319Z,7672.00
2019-05-13T07:25:15.309Z,8068.00
2019-05-13T07:26:15.330Z,7940.00
2019-05-13T07:27:15.307Z,8116.00
2019-05-13T07:28:15.292Z,7332.00
2019-05-13T07:29:15.682Z,7576.00
2019-05-13T07:30:15.279Z,8628.00
2019-05-13T07:31:15.275Z,7976.00
2019-05-13T07:32:15.258Z,7036.00
2019-05-13T07:33:15.229Z,7020.00
2019-05-13T07:34:15.209Z,7044.00
2019-05-13T07:35:15.220Z,7472.00
2019-05-13T07:36:15.190Z,8248.00
2019-05-13T07:37:15.216Z,9260.00
2019-05-13T07:38:15.202Z,10684.00
2019-05-13T07:39:15.157Z,11796.00
2019-05-13T07:40:15.148Z,13580.00
2019-05-13T07:41:15.140Z,13560.00
2019-05-13T07:42:15.150Z,12288.00
2019-05-13T07:43:15.127Z,10712.00
2019-05-13T07:44:15.118Z,9124.00
2019-05-13T07:45:15.097Z,8528.00
2019-05-13T07:46:15.091Z,8372.00
2019-05-13T07:47:15.981Z,8336.00
2019-05-13T07:48:20.983Z,8544.00
2019-05-13T07:49:16.048Z,9172.00
2019-05-13T07:50:15.037Z,10444.00
2019-05-13T07:51:15.037Z,12020.00
2019-05-13T07:52:15.018Z,11824.00
2019-05-13T07:53:18.682Z,12212.00
2019-05-13T07:54:14.996Z,11196.00
2019-05-13T07:55:14.997Z,10808.00
2019-05-13T07:56:14.995Z,10168.00
2019-05-13T07:57:14.970Z,10264.00
2019-05-13T07:58:14.974Z,10920.00
2019-05-13T07:59:14.955Z,10836.00
2019-05-13T08:00:14.931Z,9416.00
2019-05-13T08:01:14.918Z,9480.00
2019-05-13T08:02:14.907Z,9580.00
2019-05-13T08:03:14.914Z,8620.00
2019-05-13T08:04:22.543Z,8008.00
2019-05-13T08:05:15.870Z,8004.00
2019-05-13T08:06:14.870Z,7852.00
2019-05-13T08:07:14.867Z,8676.00
2019-05-13T08:08:14.861Z,9368.00
2019-05-13T08:09:14.861Z,9572.00
2019-05-13T08:10:14.829Z,8812.00
2019-05-13T08:11:14.808Z,8396.00
2019-05-13T08:12:14.957Z,8660.00
2019-05-13T08:13:14.811Z,9712.00
2019-05-13T08:14:14.798Z,10744.00
2019-05-13T08:15:14.806Z,10608.00
2019-05-13T08:16:14.757Z,10724.00
2019-05-13T08:17:14.744Z,11332.00
2019-05-13T08:18:14.726Z,12224.00
2019-05-13T08:19:14.765Z,12872.00
2019-05-13T08:20:14.717Z,12820.00
2019-05-13T08:21:14.723Z,13204.00
2019-05-13T08:22:14.690Z,13544.00
2019-05-13T08:23:14.697Z,13772.00
2019-05-13T08:24:14.678Z,13460.00
2019-05-13T08:25:14.675Z,13336.00
2019-05-13T08:26:14.649Z,13284.00
2019-05-13T08:27:14.638Z,13208.00
2019-05-13T08:28:14.627Z,12904.00
2019-05-13T08:29:14.607Z,12852.00
2019-05-13T08:30:17.959Z,12792.00
2019-05-13T08:31:14.596Z,12400.00
2019-05-13T08:32:14.642Z,12756.00
2019-05-13T08:33:14.556Z,13092.00
2019-05-13T08:34:14.546Z,13224.00
2019-05-13T08:35:16.237Z,13724.00
2019-05-13T08:36:14.539Z,13872.00
2019-05-13T08:37:14.516Z,13876.00
2019-05-13T08:38:14.510Z,13864.00
2019-05-13T08:39:14.499Z,13672.00
2019-05-13T08:40:14.505Z,12904.00
2019-05-13T08:41:19.098Z,12700.00
2019-05-13T08:42:19.635Z,13920.00
2019-05-13T08:43:15.446Z,15120.00
2019-05-13T08:44:14.440Z,14772.00
2019-05-13T08:45:14.462Z,13708.00
2019-05-13T08:46:14.448Z,13652.00
2019-05-13T08:47:14.414Z,13332.00
2019-05-13T08:48:14.406Z,13848.00
2019-05-13T08:49:14.395Z,14756.00
2019-05-13T08:50:14.404Z,11880.00
2019-05-13T08:51:14.384Z,10600.00
2019-05-13T08:52:14.474Z,9060.00
2019-05-13T08:53:14.351Z,8568.00
2019-05-13T08:54:14.330Z,10172.00
2019-05-13T08:55:16.262Z,11352.00
2019-05-13T08:56:14.335Z,12656.00
2019-05-13T08:57:14.296Z,13908.00
2019-05-13T08:58:14.295Z,14972.00
2019-05-13T08:59:14.280Z,14356.00
2019-05-13T09:00:14.265Z,14596.00
2019-05-13T09:01:14.275Z,14584.00
2019-05-13T09:02:14.257Z,13288.00
2019-05-13T09:03:14.241Z,11880.00
2019-05-13T09:04:14.219Z,10096.00
2019-05-13T09:05:14.233Z,8756.00
2019-05-13T09:06:14.237Z,9532.00
2019-05-13T09:07:14.280Z,11012.00
2019-05-13T09:08:14.195Z,11536.00
2019-05-13T09:09:14.167Z,9744.00
2019-05-13T09:10:14.188Z,9012.00
2019-05-13T09:11:14.169Z,9744.00
2019-05-13T09:12:28.543Z,10672.00
2019-05-13T09:13:15.125Z,11508.00
2019-05-13T09:14:14.122Z,11128.00
2019-05-13T09:15:14.115Z,11160.00
2019-05-13T09:16:14.143Z,10032.00
2019-05-13T09:17:14.086Z,9900.00
2019-05-13T09:18:14.073Z,10780.00
2019-05-13T09:19:16.171Z,11260.00
2019-05-13T09:20:14.055Z,12120.00
2019-05-13T09:21:14.068Z,12128.00
2019-05-13T09:22:14.024Z,11508.00
2019-05-13T09:23:14.006Z,10644.00
2019-05-13T09:24:24.538Z,10692.00
2019-05-13T09:25:14.998Z,10952.00
2019-05-13T09:26:14.011Z,11100.00
2019-05-13T09:27:13.965Z,10972.00
2019-05-13T09:28:14.009Z,10144.00
2019-05-13T09:29:13.956Z,9360.00
2019-05-13T09:30:13.934Z,8608.00
2019-05-13T09:31:13.958Z,7832.00
2019-05-13T09:32:13.952Z,7164.00
2019-05-13T09:33:13.915Z,6828.00
2019-05-13T09:34:13.912Z,6880.00
2019-05-13T09:35:13.908Z,7620.00
2019-05-13T09:36:14.395Z,8480.00
2019-05-13T09:37:13.874Z,8860.00
2019-05-13T09:38:13.884Z,9804.00
2019-05-13T09:39:13.834Z,10836.00
2019-05-13T09:40:13.851Z,10908.00
2019-05-13T09:41:13.832Z,10872.00
2019-05-13T09:42:13.917Z,11168.00
2019-05-13T09:43:13.795Z,11440.00
2019-05-13T09:44:13.795Z,10092.00
2019-05-13T09:45:13.788Z,9860.00
2019-05-13T09:46:13.766Z,9644.00
2019-05-13T09:47:13.765Z,8884.00
2019-05-13T09:48:13.757Z,10156.00
2019-05-13T09:49:19.745Z,11220.00
2019-05-13T09:50:28.297Z,12112.00
2019-05-13T09:51:14.704Z,12508.00
2019-05-13T09:52:13.718Z,12312.00
2019-05-13T09:53:13.714Z,11648.00
2019-05-13T09:54:13.679Z,10424.00
2019-05-13T09:55:24.795Z,9488.00
2019-05-13T09:56:14.646Z,9040.00
2019-05-13T09:57:13.654Z,9672.00
2019-05-13T09:58:13.656Z,10064.00
2019-05-13T09:59:13.615Z,9680.00
2019-05-13T10:00:13.617Z,9616.00
2019-05-13T10:01:13.619Z,9128.00
2019-05-13T10:02:13.602Z,8800.00
2019-05-13T10:03:14.201Z,9760.00
2019-05-13T10:04:13.554Z,10984.00
2019-05-13T10:05:13.552Z,11080.00
2019-05-13T10:06:13.536Z,10832.00
2019-05-13T10:07:13.561Z,12144.00
2019-05-13T10:08:13.550Z,13268.00
2019-05-13T10:09:13.511Z,13136.00
2019-05-13T10:10:13.485Z,12708.00
2019-05-13T10:11:13.486Z,12508.00
2019-05-13T10:12:13.485Z,12772.00
2019-05-13T10:13:15.715Z,12744.00
2019-05-13T10:14:13.455Z,12920.00
2019-05-13T10:15:13.458Z,12368.00
2019-05-13T10:16:13.425Z,12284.00
2019-05-13T10:17:13.467Z,10584.00
2019-05-13T10:18:13.452Z,8376.00
2019-05-13T10:19:13.397Z,7056.00
2019-05-13T10:20:13.384Z,6600.00
2019-05-13T10:21:13.388Z,6392.00
2019-05-13T10:22:13.385Z,6028.00
2019-05-13T10:23:13.353Z,5488.00
2019-05-13T10:24:13.344Z,4988.00
2019-05-13T10:25:13.326Z,4440.00
2019-05-13T10:26:14.520Z,3904.00
2019-05-13T10:27:13.324Z,3500.00
2019-05-13T10:28:13.405Z,3448.00
2019-05-13T10:29:13.296Z,3584.00
2019-05-13T10:30:13.274Z,3776.00
2019-05-13T10:31:13.266Z,4244.00
2019-05-13T10:32:13.298Z,4816.00
2019-05-13T10:33:13.336Z,6160.00
2019-05-13T10:34:14.240Z,7916.00
2019-05-13T10:35:13.226Z,8340.00
2019-05-13T10:36:13.224Z,7912.00
2019-05-13T10:37:13.218Z,8248.00
2019-05-13T10:38:13.588Z,8544.00
2019-05-13T10:39:13.186Z,8420.00
2019-05-13T10:40:13.182Z,7764.00
2019-05-13T10:41:13.159Z,7084.00
2019-05-13T10:42:13.169Z,6980.00
2019-05-13T10:43:29.905Z,6800.00
2019-05-13T10:44:14.128Z,6244.00
2019-05-13T10:45:13.128Z,6048.00
2019-05-13T10:46:13.117Z,5884.00
2019-05-13T10:47:13.116Z,5484.00
2019-05-13T10:48:13.607Z,4692.00
2019-05-13T10:49:13.084Z,4196.00
2019-05-13T10:50:13.054Z,4620.00
2019-05-13T10:51:13.275Z,4780.00
2019-05-13T10:52:13.052Z,4828.00
2019-05-13T10:53:13.042Z,5196.00
2019-05-13T10:54:13.033Z,5292.00
2019-05-13T10:55:13.138Z,5744.00
2019-05-13T10:56:12.984Z,5348.00
2019-05-13T10:57:13.639Z,6068.00
2019-05-13T10:58:12.987Z,5932.00
2019-05-13T10:59:12.975Z,6288.00
2019-05-13T11:00:12.943Z,6604.00
2019-05-13T11:01:12.933Z,7484.00
2019-05-13T11:02:13.504Z,8200.00
2019-05-13T11:03:12.938Z,8380.00
2019-05-13T11:04:13.634Z,7684.00
2019-05-13T11:05:12.893Z,7988.00
2019-05-13T11:06:12.882Z,7708.00
2019-05-13T11:07:12.864Z,8168.00
2019-05-13T11:08:12.853Z,7752.00
2019-05-13T11:09:13.269Z,7976.00
2019-05-13T11:10:13.554Z,7420.00
2019-05-13T11:11:13.389Z,7828.00
2019-05-13T11:12:12.823Z,8360.00
2019-05-13T11:13:12.798Z,7264.00
2019-05-13T11:14:15.431Z,6504.00
2019-05-13T11:15:12.782Z,5908.00
2019-05-13T11:16:12.775Z,6012.00
2019-05-13T11:17:13.354Z,5876.00
2019-05-13T11:18:18.990Z,6544.00
2019-05-13T11:19:13.751Z,6204.00
2019-05-13T11:20:12.732Z,5844.00
2019-05-13T11:21:13.169Z,5868.00
2019-05-13T11:22:12.711Z,5684.00
2019-05-13T11:23:12.749Z,6548.00
2019-05-13T11:24:12.963Z,6984.00
2019-05-13T11:25:12.694Z,7972.00
2019-05-13T11:26:13.048Z,8212.00
2019-05-13T11:27:12.646Z,9116.00
2019-05-13T11:28:12.671Z,9104.00
2019-05-13T11:29:12.634Z,8628.00
2019-05-13T11:30:12.642Z,9152.00
2019-05-13T11:31:12.645Z,7996.00
2019-05-13T11:32:13.407Z,5860.00
2019-05-13T11:33:12.607Z,5004.00
2019-05-13T11:34:12.744Z,5364.00
2019-05-13T11:35:13.158Z,5568.00
2019-05-13T11:36:18.692Z,5948.00
2019-05-13T11:37:13.576Z,6628.00
2019-05-13T11:38:12.551Z,7068.00
2019-05-13T11:39:13.142Z,6936.00
2019-05-13T11:40:12.537Z,6212.00
2019-05-13T11:41:12.497Z,5844.00
2019-05-13T11:43:13.481Z,5784.00
2019-05-13T11:44:16.425Z,5824.00
2019-05-13T11:45:12.486Z,6200.00
2019-05-13T11:46:12.454Z,6568.00
2019-05-13T11:47:12.843Z,7384.00
2019-05-13T11:48:13.259Z,8228.00
2019-05-13T11:49:12.580Z,7384.00
2019-05-13T11:50:12.564Z,7324.00
2019-05-13T11:51:13.064Z,7320.00
2019-05-13T11:52:12.418Z,6904.00
2019-05-13T11:53:32.653Z,6300.00
2019-05-13T11:54:14.238Z,7068.00
2019-05-13T11:55:13.165Z,8252.00
2019-05-13T11:56:12.347Z,9136.00
2019-05-13T11:57:12.750Z,8644.00
2019-05-13T11:58:13.929Z,7472.00
2019-05-13T11:59:13.952Z,8824.00
2019-05-13T12:00:13.518Z,9296.00
2019-05-13T12:01:12.337Z,8232.00
2019-05-13T12:02:13.654Z,7036.00
2019-05-13T12:03:12.257Z,6496.00
2019-05-13T12:04:12.241Z,7528.00
2019-05-13T12:05:12.227Z,8464.00
2019-05-13T12:06:12.337Z,9724.00
2019-05-13T12:07:13.219Z,8364.00
2019-05-13T12:08:12.800Z,6380.00
2019-05-13T12:09:13.186Z,5480.00
2019-05-13T12:10:12.521Z,5072.00
2019-05-13T12:11:13.974Z,4392.00
2019-05-13T12:12:13.208Z,4460.00
2019-05-13T12:13:12.673Z,4360.00
2019-05-13T12:14:37.237Z,4204.00
2019-05-13T12:15:28.755Z,4076.00
2019-05-13T12:16:13.213Z,4200.00
2019-05-13T12:17:14.230Z,4316.00
2019-05-13T12:18:12.800Z,4412.00
2019-05-13T12:19:12.159Z,4328.00
2019-05-13T12:20:12.300Z,4188.00
2019-05-13T12:21:12.434Z,3964.00
2019-05-13T12:22:13.203Z,3556.00
2019-05-13T12:23:13.035Z,3168.00